createdAt,value
2018-03-24T00:02:17.304Z,89.10
2018-03-24T00:04:44.727Z,89.40
2018-03-24T00:07:12.164Z,90.00
2018-03-24T00:09:39.631Z,90.10
2018-03-24T00:12:07.088Z,90.10
2018-03-24T00:14:34.537Z,89.90
2018-03-24T00:17:01.995Z,90.00
2018-03-24T00:19:29.460Z,90.20
2018-03-24T00:21:56.885Z,90.50
2018-03-24T00:24:24.342Z,90.20
2018-03-24T00:26:51.775Z,90.10
2018-03-24T00:29:19.993Z,90.10
2018-03-24T00:31:47.442Z,90.00
2018-03-24T00:34:14.899Z,90.30
2018-03-24T00:36:42.331Z,90.30
2018-03-24T00:39:09.792Z,90.30
2018-03-24T00:41:37.247Z,90.30
2018-03-24T00:44:04.683Z,90.00
2018-03-24T00:46:32.132Z,89.90
2018-03-24T00:48:59.560Z,90.10
2018-03-24T00:51:27.003Z,90.00
2018-03-24T00:53:54.429Z,89.80
2018-03-24T00:56:21.880Z,89.40
2018-03-24T00:58:50.102Z,89.20
2018-03-24T01:01:17.532Z,89.20
2018-03-24T01:03:44.981Z,88.30
2018-03-24T01:06:12.405Z,89.60
2018-03-24T01:08:39.856Z,89.70
2018-03-24T01:11:07.301Z,89.40
2018-03-24T01:13:34.748Z,89.40
2018-03-24T01:16:02.190Z,89.50
2018-03-24T01:18:29.646Z,89.70
2018-03-24T01:20:57.167Z,90.00
2018-03-24T01:23:24.598Z,90.10
2018-03-24T01:25:52.052Z,90.10
2018-03-24T01:28:19.502Z,90.10
2018-03-24T01:30:46.960Z,90.20
2018-03-24T01:33:14.386Z,90.40
2018-03-24T01:35:41.853Z,90.30
2018-03-24T01:38:09.308Z,90.30
2018-03-24T01:40:36.770Z,90.40
2018-03-24T01:43:04.272Z,90.50
2018-03-24T01:45:31.720Z,90.70
2018-03-24T01:47:59.924Z,90.50
2018-03-24T01:50:27.373Z,90.50
2018-03-24T01:52:54.815Z,90.80
2018-03-24T01:55:22.259Z,90.80
2018-03-24T01:57:49.708Z,90.70
2018-03-24T02:00:17.165Z,90.70
2018-03-24T02:02:44.623Z,91.00
2018-03-24T02:05:12.057Z,90.80
2018-03-24T02:07:39.514Z,91.40
2018-03-24T02:10:06.963Z,91.60
2018-03-24T02:12:34.427Z,91.60
2018-03-24T02:15:01.882Z,92.00
2018-03-24T02:17:29.324Z,92.10
2018-03-24T02:19:56.808Z,92.70
2018-03-24T02:22:24.259Z,93.10
2018-03-24T02:24:54.284Z,93.00
2018-03-24T02:27:21.877Z,93.10
2018-03-24T02:29:49.327Z,92.70
2018-03-24T02:32:16.770Z,93.10
2018-03-24T02:34:44.250Z,93.10
2018-03-24T02:37:11.678Z,93.20
2018-03-24T02:39:39.137Z,93.40
2018-03-24T02:42:06.580Z,93.30
2018-03-24T02:44:34.013Z,93.60
2018-03-24T02:47:01.471Z,93.50
2018-03-24T02:49:28.924Z,93.70
2018-03-24T02:51:56.381Z,93.50
2018-03-24T02:54:23.819Z,93.40
2018-03-24T02:56:52.047Z,93.60
2018-03-24T02:59:19.506Z,93.50
2018-03-24T03:01:46.949Z,93.60
2018-03-24T03:04:14.384Z,93.90
2018-03-24T03:06:41.838Z,93.60
2018-03-24T03:09:09.284Z,93.90
2018-03-24T03:11:36.760Z,93.80
2018-03-24T03:14:04.224Z,94.00
2018-03-24T03:16:31.689Z,93.90
2018-03-24T03:18:59.147Z,93.90
2018-03-24T03:21:38.316Z,93.80
2018-03-24T03:24:05.760Z,93.90
2018-03-24T03:26:33.217Z,94.40
2018-03-24T03:29:00.668Z,94.80
2018-03-24T03:31:28.109Z,95.00
2018-03-24T03:33:55.564Z,95.30
2018-03-24T03:36:23.024Z,95.00
2018-03-24T03:38:50.482Z,95.20
2018-03-24T03:41:17.915Z,95.20
2018-03-24T03:43:45.364Z,95.00
2018-03-24T03:46:12.801Z,95.00
2018-03-24T03:48:40.238Z,95.00
2018-03-24T03:51:07.680Z,95.10
2018-03-24T03:53:35.140Z,95.30
2018-03-24T03:56:02.627Z,95.20
2018-03-24T03:58:30.060Z,95.00
2018-03-24T04:00:57.520Z,94.90
2018-03-24T04:03:24.948Z,94.80
2018-03-24T04:05:52.405Z,94.60
2018-03-24T04:08:19.840Z,94.70
2018-03-24T04:10:47.299Z,94.70
2018-03-24T04:13:14.753Z,95.00
2018-03-24T04:15:42.951Z,95.30
2018-03-24T04:18:10.415Z,95.30
2018-03-24T04:20:37.857Z,95.10
2018-03-24T04:23:05.303Z,95.20
2018-03-24T04:25:32.743Z,95.30
2018-03-24T04:28:00.205Z,95.20
2018-03-24T04:30:27.657Z,95.40
2018-03-24T04:32:55.100Z,95.60
2018-03-24T04:35:22.540Z,95.40
2018-03-24T04:37:49.996Z,95.40
2018-03-24T04:40:17.497Z,95.30
2018-03-24T04:42:44.927Z,95.40
2018-03-24T04:45:12.387Z,95.20
2018-03-24T04:47:39.834Z,95.00
2018-03-24T04:50:07.272Z,95.00
2018-03-24T04:52:34.708Z,94.90
2018-03-24T04:55:02.157Z,94.80
2018-03-24T04:57:29.582Z,94.70
2018-03-24T04:59:57.814Z,94.60
2018-03-24T05:02:25.272Z,94.60
2018-03-24T05:04:52.710Z,95.20
2018-03-24T05:07:20.163Z,94.80
2018-03-24T05:09:47.599Z,94.80
2018-03-24T05:12:15.042Z,94.90
2018-03-24T05:14:42.498Z,95.00
2018-03-24T05:17:09.958Z,94.90
2018-03-24T05:19:37.387Z,94.80
2018-03-24T05:22:04.840Z,94.80
2018-03-24T05:24:32.296Z,94.90
2018-03-24T05:26:59.740Z,94.90
2018-03-24T05:29:27.202Z,94.70
2018-03-24T05:31:54.640Z,94.60
2018-03-24T05:34:22.095Z,94.30
2018-03-24T05:36:49.532Z,94.60
2018-03-24T05:39:16.969Z,94.10
2018-03-24T05:41:45.199Z,94.00
2018-03-24T05:44:12.658Z,93.90
2018-03-24T05:46:40.132Z,93.90
2018-03-24T05:49:07.567Z,93.80
2018-03-24T05:51:35.023Z,94.20
2018-03-24T05:54:03.315Z,94.10
2018-03-24T05:56:30.787Z,94.30
2018-03-24T05:58:58.232Z,94.50
2018-03-24T06:01:25.691Z,93.90
2018-03-24T06:03:53.133Z,94.10
2018-03-24T06:06:20.656Z,94.10
2018-03-24T06:08:48.097Z,94.30
2018-03-24T06:11:15.550Z,94.50
2018-03-24T06:13:42.980Z,94.40
2018-03-24T06:16:10.441Z,94.00
2018-03-24T06:18:37.891Z,93.70
2018-03-24T06:21:05.329Z,93.60
2018-03-24T06:23:32.784Z,93.90
2018-03-24T06:26:00.219Z,93.70
2018-03-24T06:28:27.747Z,94.10
2018-03-24T06:30:55.196Z,93.70
2018-03-24T06:33:22.692Z,93.30
2018-03-24T06:35:51.071Z,93.40
2018-03-24T06:38:18.535Z,92.90
2018-03-24T06:40:45.993Z,93.10
2018-03-24T06:43:13.436Z,92.90
2018-03-24T06:45:40.879Z,92.80
2018-03-24T06:48:08.329Z,92.40
2018-03-24T06:50:35.808Z,92.40
2018-03-24T06:53:03.244Z,92.20
2018-03-24T06:55:30.708Z,91.90
2018-03-24T06:57:58.147Z,92.00
2018-03-24T07:00:25.628Z,91.50
2018-03-24T07:02:53.073Z,91.10
2018-03-24T07:05:20.520Z,91.00
2018-03-24T07:07:47.972Z,91.20
2018-03-24T07:10:15.425Z,90.90
2018-03-24T07:12:42.938Z,90.70
2018-03-24T07:15:10.373Z,89.90
2018-03-24T07:17:37.813Z,89.10
2018-03-24T07:20:05.257Z,87.60
2018-03-24T07:22:32.723Z,86.90
2018-03-24T07:25:00.167Z,86.90
2018-03-24T07:27:27.593Z,86.70
2018-03-24T07:29:55.019Z,86.40
2018-03-24T07:32:22.469Z,84.30
2018-03-24T07:34:50.681Z,83.00
2018-03-24T07:37:18.135Z,82.90
2018-03-24T07:39:45.563Z,82.60
2018-03-24T07:42:13.010Z,82.90
2018-03-24T07:44:41.207Z,82.20
2018-03-24T07:47:08.651Z,81.50
2018-03-24T07:49:36.115Z,81.50
2018-03-24T07:52:04.320Z,80.10
2018-03-24T07:54:31.774Z,80.10
2018-03-24T07:56:59.290Z,78.60
2018-03-24T07:59:27.508Z,78.60
2018-03-24T08:01:54.936Z,78.60
2018-03-24T08:04:22.372Z,76.90
2018-03-24T08:06:50.605Z,75.60
2018-03-24T08:09:18.052Z,75.50
2018-03-24T08:11:45.507Z,74.40
2018-03-24T08:14:13.004Z,74.20
2018-03-24T08:16:40.431Z,73.20
2018-03-24T08:19:07.956Z,72.80
2018-03-24T08:21:35.398Z,71.50
2018-03-24T08:24:02.830Z,70.00
2018-03-24T08:26:30.260Z,69.70
2018-03-24T08:28:57.727Z,70.40
2018-03-24T08:31:25.176Z,70.30
2018-03-24T08:33:52.627Z,69.40
2018-03-24T08:36:20.080Z,69.10
2018-03-24T08:38:47.524Z,69.40
2018-03-24T08:41:15.061Z,68.70
2018-03-24T08:43:42.518Z,69.00
2018-03-24T08:46:10.124Z,69.30
2018-03-24T08:48:37.573Z,68.50
2018-03-24T08:51:05.041Z,68.80
2018-03-24T08:53:32.500Z,68.60
2018-03-24T08:55:59.911Z,69.10
2018-03-24T08:58:27.356Z,68.00
2018-03-24T09:00:55.569Z,65.80
2018-03-24T09:03:23.121Z,65.80
2018-03-24T09:05:50.555Z,64.30
2018-03-24T09:08:18.767Z,62.10
2018-03-24T09:10:46.210Z,62.00
2018-03-24T09:13:13.664Z,61.00
2018-03-24T09:15:41.117Z,59.40
2018-03-24T09:18:08.556Z,59.20
2018-03-24T09:20:36.001Z,57.50
2018-03-24T09:23:03.439Z,57.60
2018-03-24T09:25:30.891Z,57.70
2018-03-24T09:27:58.325Z,57.60
2018-03-24T09:30:25.774Z,57.10
2018-03-24T09:32:53.209Z,56.60
2018-03-24T09:35:20.639Z,56.90
2018-03-24T09:37:48.068Z,55.50
2018-03-24T09:40:15.516Z,54.50
2018-03-24T09:42:42.959Z,54.50
2018-03-24T09:45:10.476Z,55.30
2018-03-24T09:47:37.949Z,54.80
2018-03-24T09:50:05.394Z,53.10
2018-03-24T09:52:32.842Z,53.60
2018-03-24T09:55:00.298Z,52.00
2018-03-24T09:57:28.329Z,51.10
2018-03-24T09:59:55.764Z,50.30
2018-03-24T10:02:23.195Z,50.70
2018-03-24T10:04:51.423Z,47.50
2018-03-24T10:07:18.881Z,47.50
2018-03-24T10:09:46.340Z,48.80
2018-03-24T10:12:13.771Z,46.90
2018-03-24T10:14:41.231Z,47.60
2018-03-24T10:17:08.663Z,48.20
2018-03-24T10:19:36.126Z,49.00
2018-03-24T10:22:12.920Z,50.40
2018-03-24T10:24:40.351Z,50.40
2018-03-24T10:27:07.816Z,48.30
2018-03-24T10:29:36.079Z,47.50
2018-03-24T10:32:03.538Z,47.40
2018-03-24T10:34:30.967Z,47.90
2018-03-24T10:36:58.429Z,47.80
2018-03-24T10:39:25.901Z,47.80
2018-03-24T10:41:53.335Z,47.10
2018-03-24T10:44:20.772Z,45.20
2018-03-24T10:46:48.199Z,45.20
2018-03-24T10:49:15.659Z,45.40
2018-03-24T10:51:43.212Z,42.60
2018-03-24T10:54:10.668Z,41.50
2018-03-24T10:56:38.115Z,40.30
2018-03-24T10:59:06.320Z,36.60
2018-03-24T11:01:33.763Z,36.50
2018-03-24T11:04:01.207Z,35.70
2018-03-24T11:06:28.655Z,32.50
2018-03-24T11:08:56.099Z,32.60
2018-03-24T11:11:23.559Z,32.50
2018-03-24T11:13:50.988Z,33.30
2018-03-24T11:16:18.491Z,31.80
2018-03-24T11:18:45.936Z,30.40
2018-03-24T11:21:13.385Z,28.70
2018-03-24T11:23:40.829Z,26.60
2018-03-24T11:26:08.293Z,26.60
2018-03-24T11:28:35.735Z,24.50
2018-03-24T11:31:03.183Z,22.60
2018-03-24T11:33:30.660Z,21.30
2018-03-24T11:35:58.096Z,20.50
2018-03-24T11:38:25.538Z,20.00
2018-03-24T11:40:53.024Z,18.80
2018-03-24T11:43:20.480Z,18.90
2018-03-24T11:45:47.927Z,19.10
2018-03-24T11:48:15.365Z,19.00
2018-03-24T11:50:42.832Z,18.70
2018-03-24T11:53:10.264Z,19.20
2018-03-24T11:55:37.717Z,18.40
2018-03-24T11:58:05.168Z,17.90
2018-03-24T12:00:32.619Z,18.80
2018-03-24T12:03:00.849Z,19.10
2018-03-24T12:05:28.279Z,19.00
2018-03-24T12:07:55.741Z,18.20
2018-03-24T12:10:23.195Z,17.90
2018-03-24T12:12:50.633Z,18.80
2018-03-24T12:15:18.079Z,18.70
2018-03-24T12:17:45.536Z,17.40
2018-03-24T12:20:12.982Z,16.50
2018-03-24T12:22:40.441Z,15.60
2018-03-24T12:25:07.884Z,15.10
2018-03-24T12:27:35.320Z,15.90
2018-03-24T12:30:02.772Z,15.10
2018-03-24T12:32:30.217Z,16.10
2018-03-24T12:34:57.656Z,16.10
2018-03-24T12:37:25.109Z,15.90
2018-03-24T12:39:52.540Z,15.00
2018-03-24T12:42:20.963Z,14.90
2018-03-24T12:44:48.400Z,14.90
2018-03-24T12:47:15.832Z,13.80
2018-03-24T12:49:43.261Z,13.50
2018-03-24T12:52:10.706Z,13.40
2018-03-24T12:54:38.147Z,13.50
2018-03-24T12:57:05.625Z,14.10
2018-03-24T12:59:33.059Z,13.30
2018-03-24T13:02:00.503Z,13.90
2018-03-24T13:04:28.695Z,13.00
2018-03-24T13:06:56.149Z,13.00
2018-03-24T13:09:23.629Z,13.80
2018-03-24T13:11:51.079Z,14.00
2018-03-24T13:14:18.524Z,14.50
2018-03-24T13:16:45.982Z,13.80
2018-03-24T13:19:13.639Z,13.40
2018-03-24T13:21:41.060Z,13.30
2018-03-24T13:24:09.288Z,12.20
2018-03-24T13:26:36.723Z,12.10
2018-03-24T13:29:04.167Z,11.50
2018-03-24T13:31:31.621Z,12.70
2018-03-24T13:33:59.065Z,13.90
2018-03-24T13:36:26.539Z,15.20
2018-03-24T13:38:54.000Z,14.10
2018-03-24T13:41:21.462Z,13.40
2018-03-24T13:43:48.893Z,13.20
2018-03-24T13:46:16.349Z,12.40
2018-03-24T13:48:43.791Z,12.20
2018-03-24T13:51:11.237Z,12.00
2018-03-24T13:53:38.691Z,12.10
2018-03-24T13:56:06.141Z,12.50
2018-03-24T13:58:33.583Z,11.90
2018-03-24T14:01:01.056Z,11.60
2018-03-24T14:03:28.487Z,11.80
2018-03-24T14:05:55.945Z,12.00
2018-03-24T14:08:23.496Z,12.10
2018-03-24T14:10:50.951Z,12.00
2018-03-24T14:13:18.390Z,12.10
2018-03-24T14:15:45.817Z,11.90
2018-03-24T14:18:13.255Z,11.80
2018-03-24T14:20:40.990Z,12.00
2018-03-24T14:23:08.445Z,12.00
2018-03-24T14:25:35.907Z,12.10
2018-03-24T14:28:03.339Z,12.10
2018-03-24T14:30:30.916Z,12.60
2018-03-24T14:32:58.381Z,13.00
2018-03-24T14:35:25.834Z,13.30
2018-03-24T14:37:53.300Z,13.00
2018-03-24T14:40:20.953Z,12.70
2018-03-24T14:42:48.415Z,13.00
2018-03-24T14:45:15.879Z,12.70
2018-03-24T14:47:43.345Z,13.40
2018-03-24T14:50:11.017Z,13.70
2018-03-24T14:52:38.620Z,13.70
2018-03-24T14:55:06.311Z,13.50
2018-03-24T14:57:33.756Z,13.50
2018-03-24T15:00:01.226Z,13.80
2018-03-24T15:02:28.640Z,13.90
2018-03-24T15:04:56.856Z,14.40
2018-03-24T15:07:24.287Z,14.30
2018-03-24T15:09:51.737Z,14.40
2018-03-24T15:12:19.226Z,14.80
2018-03-24T15:14:47.579Z,16.60
2018-03-24T15:17:15.017Z,16.50
2018-03-24T15:19:42.476Z,16.30
2018-03-24T15:22:09.940Z,16.60
2018-03-24T15:24:37.399Z,17.00
2018-03-24T15:27:04.840Z,18.10
2018-03-24T15:29:44.172Z,19.30
2018-03-24T15:32:23.472Z,20.60
2018-03-24T15:35:02.770Z,21.90
2018-03-24T15:37:31.019Z,24.30
2018-03-24T15:39:58.477Z,24.10
2018-03-24T15:42:25.933Z,25.10
2018-03-24T15:44:53.360Z,25.80
2018-03-24T15:47:20.847Z,26.60
2018-03-24T15:49:48.327Z,27.30
2018-03-24T15:52:15.764Z,27.90
2018-03-24T15:54:43.199Z,28.50
2018-03-24T15:57:10.675Z,28.90
2018-03-24T15:59:38.092Z,29.40
2018-03-24T16:02:05.543Z,30.00
2018-03-24T16:04:33.008Z,30.10
2018-03-24T16:07:00.488Z,30.70
2018-03-24T16:09:27.959Z,31.90
2018-03-24T16:11:55.413Z,32.30
2018-03-24T16:14:22.865Z,32.30
2018-03-24T16:16:50.301Z,32.70
2018-03-24T16:19:17.758Z,33.70
2018-03-24T16:21:45.185Z,33.80
2018-03-24T16:24:12.657Z,34.30
2018-03-24T16:26:40.134Z,34.80
2018-03-24T16:29:07.572Z,35.20
2018-03-24T16:31:35.044Z,35.20
2018-03-24T16:34:02.481Z,35.30
2018-03-24T16:36:29.931Z,35.20
2018-03-24T16:38:57.370Z,35.40
2018-03-24T16:41:24.832Z,36.40
2018-03-24T16:43:52.271Z,36.00
2018-03-24T16:46:20.530Z,36.60
2018-03-24T16:48:48.021Z,36.50
2018-03-24T16:51:15.463Z,36.70
2018-03-24T16:53:43.732Z,37.60
2018-03-24T16:56:11.956Z,38.10
2018-03-24T16:58:39.443Z,38.10
2018-03-24T17:01:06.880Z,38.40
2018-03-24T17:03:34.408Z,38.80
2018-03-24T17:06:01.860Z,39.60
2018-03-24T17:08:29.315Z,40.10
2018-03-24T17:10:56.747Z,40.10
2018-03-24T17:13:24.209Z,40.60
2018-03-24T17:15:51.665Z,41.20
2018-03-24T17:18:19.084Z,41.50
2018-03-24T17:20:46.537Z,57.20
2018-03-24T17:23:13.964Z,65.40
2018-03-24T17:25:41.516Z,61.20
2018-03-24T17:28:08.997Z,61.70
2018-03-24T17:30:37.289Z,55.90
2018-03-24T17:33:04.735Z,51.30
2018-03-24T17:35:32.174Z,53.40
2018-03-24T17:37:59.654Z,55.80
2018-03-24T17:40:27.116Z,54.00
2018-03-24T17:42:54.565Z,55.40
2018-03-24T17:45:21.981Z,56.70
2018-03-24T17:47:50.194Z,68.00
2018-03-24T17:50:17.648Z,67.90
2018-03-24T17:52:45.085Z,61.80
2018-03-24T17:55:12.534Z,59.60
2018-03-24T17:57:39.960Z,61.80
2018-03-24T18:00:07.390Z,59.70
2018-03-24T18:02:34.835Z,57.80
2018-03-24T18:05:02.321Z,57.70
2018-03-24T18:07:29.804Z,60.50
2018-03-24T18:09:57.315Z,59.70
2018-03-24T18:12:24.744Z,59.60
2018-03-24T18:14:52.184Z,59.40
2018-03-24T18:17:19.623Z,59.90
2018-03-24T18:19:47.045Z,59.00
2018-03-24T18:22:14.476Z,59.40
2018-03-24T18:24:41.942Z,59.20
2018-03-24T18:27:09.350Z,57.60
2018-03-24T18:29:36.812Z,56.90
2018-03-24T18:32:04.235Z,56.80
2018-03-24T18:34:31.684Z,56.70
2018-03-24T18:36:59.115Z,57.30
2018-03-24T18:39:26.572Z,56.60
2018-03-24T18:41:54.023Z,56.60
2018-03-24T18:44:21.481Z,56.70
2018-03-24T18:46:48.937Z,60.40
2018-03-24T18:49:16.389Z,59.70
2018-03-24T18:51:43.825Z,57.30
2018-03-24T18:54:11.254Z,57.80
2018-03-24T18:56:38.700Z,59.40
2018-03-24T18:59:06.154Z,58.10
2018-03-24T19:01:33.589Z,59.40
2018-03-24T19:04:01.044Z,58.80
2018-03-24T19:06:28.467Z,58.40
2018-03-24T19:08:55.919Z,58.80
2018-03-24T19:11:23.352Z,59.90
2018-03-24T19:13:50.804Z,61.40
2018-03-24T19:16:18.233Z,62.50
2018-03-24T19:18:45.688Z,62.40
2018-03-24T19:21:13.122Z,60.50
2018-03-24T19:23:41.338Z,63.10
2018-03-24T19:26:08.772Z,62.90
2018-03-24T19:28:36.223Z,61.40
2018-03-24T19:31:03.666Z,60.30
2018-03-24T19:33:31.108Z,60.00
2018-03-24T19:35:58.544Z,61.20
2018-03-24T19:38:26.031Z,63.70
2018-03-24T19:40:53.473Z,64.10
2018-03-24T19:43:20.920Z,65.70
2018-03-24T19:45:48.387Z,65.10
2018-03-24T19:48:15.844Z,62.80
2018-03-24T19:50:43.302Z,60.70
2018-03-24T19:53:10.748Z,61.20
2018-03-24T19:55:38.195Z,60.30
2018-03-24T19:58:05.616Z,60.60
2018-03-24T20:00:33.167Z,60.40
2018-03-24T20:03:00.600Z,61.10
2018-03-24T20:05:28.051Z,61.20
2018-03-24T20:07:55.479Z,61.40
2018-03-24T20:10:22.914Z,61.80
2018-03-24T20:12:50.352Z,63.00
2018-03-24T20:15:17.811Z,62.60
2018-03-24T20:17:45.281Z,63.10
2018-03-24T20:20:12.712Z,62.80
2018-03-24T20:22:40.922Z,63.00
2018-03-24T20:25:08.375Z,62.90
2018-03-24T20:27:35.796Z,63.00
2018-03-24T20:30:03.247Z,63.10
2018-03-24T20:32:30.703Z,63.60
2018-03-24T20:34:58.134Z,63.90
2018-03-24T20:37:25.576Z,64.00
2018-03-24T20:39:53.008Z,64.00
2018-03-24T20:42:20.456Z,64.50
2018-03-24T20:44:47.880Z,64.50
2018-03-24T20:47:15.328Z,64.80
2018-03-24T20:49:42.751Z,64.70
2018-03-24T20:52:10.192Z,64.70
2018-03-24T20:54:37.633Z,64.90
2018-03-24T20:57:05.093Z,65.00
2018-03-24T20:59:32.543Z,65.10
2018-03-24T21:01:59.988Z,65.70
2018-03-24T21:04:28.214Z,66.20
2018-03-24T21:06:55.741Z,66.10
2018-03-24T21:09:23.179Z,66.10
2018-03-24T21:11:50.617Z,66.40
2018-03-24T21:14:18.064Z,67.50
2018-03-24T21:16:45.518Z,67.50
2018-03-24T21:19:12.956Z,67.90
2018-03-24T21:21:40.408Z,68.00
2018-03-24T21:24:07.968Z,68.60
2018-03-24T21:26:35.400Z,68.40
2018-03-24T21:29:02.854Z,68.60
2018-03-24T21:31:30.316Z,68.90
2018-03-24T21:33:57.726Z,69.10
2018-03-24T21:36:25.175Z,68.80
2018-03-24T21:38:52.662Z,69.00
2018-03-24T21:41:20.066Z,69.80
2018-03-24T21:43:47.497Z,69.90
2018-03-24T21:46:14.947Z,69.90
2018-03-24T21:48:42.419Z,70.10
2018-03-24T21:51:09.977Z,70.80
2018-03-24T21:53:37.404Z,70.80
2018-03-24T21:56:04.856Z,71.00
2018-03-24T21:58:32.285Z,71.80
2018-03-24T22:01:01.715Z,71.80
2018-03-24T22:03:29.143Z,72.30
2018-03-24T22:05:56.591Z,72.50
2018-03-24T22:08:24.043Z,72.40
2018-03-24T22:10:51.477Z,72.10
2018-03-24T22:13:18.918Z,72.00
2018-03-24T22:15:46.360Z,72.20
2018-03-24T22:18:13.783Z,72.00
2018-03-24T22:20:41.232Z,71.90
2018-03-24T22:23:08.691Z,72.00
2018-03-24T22:25:36.139Z,71.90
2018-03-24T22:28:03.555Z,72.10
2018-03-24T22:30:31.771Z,72.60
2018-03-24T22:32:59.212Z,72.60
2018-03-24T22:35:26.661Z,72.20
2018-03-24T22:37:54.114Z,72.70
2018-03-24T22:40:21.536Z,72.80
2018-03-24T22:42:48.992Z,72.50
2018-03-24T22:45:16.481Z,72.60
2018-03-24T22:47:43.876Z,73.40
2018-03-24T22:50:11.316Z,73.90
2018-03-24T22:52:38.779Z,74.90
2018-03-24T22:55:06.222Z,75.80
2018-03-24T22:57:33.776Z,76.70
2018-03-24T23:00:01.210Z,76.90
2018-03-24T23:02:28.666Z,77.40
2018-03-24T23:04:56.097Z,77.10
2018-03-24T23:07:23.587Z,77.50
2018-03-24T23:09:51.020Z,77.30
2018-03-24T23:12:18.456Z,77.00
2018-03-24T23:14:45.900Z,77.60
2018-03-24T23:17:13.344Z,76.90
2018-03-24T23:19:40.893Z,77.00
2018-03-24T23:22:08.399Z,76.90
2018-03-24T23:24:35.820Z,76.60
2018-03-24T23:27:03.264Z,76.00
2018-03-24T23:29:30.747Z,76.50
2018-03-24T23:31:58.181Z,77.00
2018-03-24T23:34:25.721Z,76.30
2018-03-24T23:36:53.049Z,76.90
2018-03-24T23:39:20.475Z,77.00
2018-03-24T23:41:47.911Z,76.80
2018-03-24T23:44:15.367Z,77.20
2018-03-24T23:46:42.826Z,77.20
2018-03-24T23:49:10.243Z,77.90
2018-03-24T23:51:37.689Z,77.90
2018-03-24T23:54:05.115Z,78.20
2018-03-24T23:56:32.572Z,78.40
2018-03-24T23:59:00.006Z,78.20
